Glenwood Plt, Maine
Current Conditions -  °F | °C
As of 4:53 PM on Sunday 21 Dec 2014 (Local Time) from KHUL Reporting Station
Overcast Overcast  
Wind Chill: 26°   Ceiling: 2500
Heat Index: 26°   Visibility: 10mi
Dew Point: 22°   Wind: 0mph
Humidity: 84%   Direction: NA
Pressure: 30.33"   Gusts: NA
Location:  45.7877°N, 68.0764°W
Report Text: KHUL 212153Z AUTO 00000KT 10SM OVC025 M03/M06 A3033 RMK AO2 SLP281 T10331056
Loading
Personal Weather Stations






























Interactive Weather Map New forecast layout! Learn more

10-Day Weather Forecast

Advertisements
Track Severe Weather on mobile